Time;durP1;ratioP1;P1;durP2;ratioP2;P2;SDS_P1;SDS_P2;PMS_P1;PMS_P2;Temp;Humidity;BMP_temperature;BMP_pressure;BME280_temperature;BME280_humidity;BME280_pressure;Samples;Min_cycle;Max_cycle;Signal;HPM_P1;HPM_P2
2022/11/19 00:00:48;;;;;;;6.10;5.60;;;;;;;;;;4990037;28;20223;-87
2022/11/19 00:03:20;;;;;;;7.00;6.33;;;;;;;;;;4962236;28;20237;-87
2022/11/19 00:05:51;;;;;;;5.83;5.27;;;;;;;;;;4977666;28;20252;-86
2022/11/19 00:08:18;;;;;;;6.50;5.90;;;;;;;;;;4983558;28;20236;-86
2022/11/19 00:10:44;;;;;;;5.60;5.10;;;;;;;;;;4978272;28;20284;-87
2022/11/19 00:13:11;;;;;;;6.27;5.67;;;;;;;;;;4961538;28;20246;-87
2022/11/19 00:15:39;;;;;;;5.83;5.30;;;;;;;;;;4985735;28;20229;-87
2022/11/19 00:18:04;;;;;;;5.53;5.03;;;;;;;;;;4994502;28;20226;-86
2022/11/19 00:20:31;;;;;;;6.43;5.83;;;;;;;;;;4989687;28;20222;-86
2022/11/19 00:22:59;;;;;;;5.80;5.30;;;;;;;;;;4958293;28;20250;-86
2022/11/19 00:25:26;;;;;;;5.53;5.03;;;;;;;;;;4977819;28;20297;-89
2022/11/19 00:27:51;;;;;;;6.30;5.40;;;;;;;;;;4980395;28;20226;-86
2022/11/19 00:30:18;;;;;;;5.33;4.93;;;;;;;;;;4995441;28;20256;-87
2022/11/19 00:32:43;;;;;;;6.10;5.57;;;;;;;;;;5006416;28;20233;-86
2022/11/19 00:35:09;;;;;;;5.77;4.67;;;;;;;;;;4983255;28;20776;-88
2022/11/19 00:37:34;;;;;;;5.63;5.17;;;;;;;;;;4969201;28;20221;-87
2022/11/19 00:40:00;;;;;;;6.73;5.63;;;;;;;;;;4953237;28;20705;-87
2022/11/19 00:42:26;;;;;;;5.07;4.63;;;;;;;;;;4953665;28;20286;-85
2022/11/19 00:44:53;;;;;;;6.07;5.43;;;;;;;;;;4980110;28;20554;-86
2022/11/19 00:47:19;;;;;;;5.60;5.00;;;;;;;;;;5003504;28;20243;-87
2022/11/19 00:49:47;;;;;;;5.67;5.13;;;;;;;;;;4976828;28;20234;-87
2022/11/19 00:52:15;;;;;;;5.90;5.30;;;;;;;;;;4963987;28;20590;-88
2022/11/19 00:54:40;;;;;;;5.77;5.20;;;;;;;;;;4963476;28;20230;-87
2022/11/19 00:57:08;;;;;;;5.63;5.07;;;;;;;;;;4983148;28;20230;-87
2022/11/19 00:59:34;;;;;;;5.60;5.00;;;;;;;;;;4989897;28;20597;-87
2022/11/19 01:02:02;;;;;;;5.30;4.80;;;;;;;;;;4962276;28;20225;-89
2022/11/19 01:04:29;;;;;;;5.40;4.90;;;;;;;;;;4986798;28;20226;-88
2022/11/19 01:06:57;;;;;;;6.33;5.73;;;;;;;;;;4984101;28;20320;-86
2022/11/19 01:09:28;;;;;;;5.50;5.00;;;;;;;;;;4962412;28;20297;-87
2022/11/19 01:11:56;;;;;;;5.77;5.27;;;;;;;;;;4986713;28;20240;-87
2022/11/19 01:14:22;;;;;;;5.13;4.70;;;;;;;;;;4970318;28;20283;-88
2022/11/19 01:16:49;;;;;;;5.57;5.10;;;;;;;;;;4979733;28;20230;-86
2022/11/19 01:19:18;;;;;;;5.60;5.10;;;;;;;;;;4985158;28;20226;-89
2022/11/19 01:21:46;;;;;;;5.13;4.63;;;;;;;;;;4971331;28;20670;-88
2022/11/19 01:24:14;;;;;;;6.33;5.60;;;;;;;;;;4990506;28;20237;-87
2022/11/19 01:26:40;;;;;;;5.20;4.70;;;;;;;;;;4984352;28;20239;-87
2022/11/19 01:29:09;;;;;;;5.63;5.03;;;;;;;;;;4985755;28;20233;-87
2022/11/19 01:31:35;;;;;;;5.60;4.87;;;;;;;;;;4990211;28;20224;-86
2022/11/19 01:34:00;;;;;;;5.37;4.97;;;;;;;;;;4989094;28;20269;-88
2022/11/19 01:36:29;;;;;;;5.67;5.17;;;;;;;;;;4961118;28;20353;-86
2022/11/19 01:38:57;;;;;;;5.73;5.23;;;;;;;;;;4981425;28;20702;-88
2022/11/19 01:41:27;;;;;;;7.03;5.37;;;;;;;;;;4978783;28;20276;-87
2022/11/19 01:43:57;;;;;;;5.03;4.67;;;;;;;;;;4980057;28;20241;-87
2022/11/19 01:46:25;;;;;;;5.30;4.80;;;;;;;;;;4963101;28;20230;-88
2022/11/19 01:49:12;;;;;;;5.83;5.23;;;;;;;;;;4982706;28;20222;-87
2022/11/19 01:52:13;;;;;;;6.80;5.70;;;;;;;;;;4999609;28;20794;-87
2022/11/19 01:54:40;;;;;;;5.03;4.63;;;;;;;;;;4932666;28;20266;-86
2022/11/19 01:57:08;;;;;;;6.07;4.80;;;;;;;;;;4961183;28;20703;-88
2022/11/19 01:59:36;;;;;;;5.73;5.23;;;;;;;;;;4984327;28;20222;-87
2022/11/19 02:02:04;;;;;;;5.73;5.23;;;;;;;;;;4965851;28;20753;-87
2022/11/19 02:04:30;;;;;;;5.60;5.10;;;;;;;;;;4932754;28;20241;-87
2022/11/19 02:06:58;;;;;;;5.40;4.90;;;;;;;;;;4965193;28;20715;-86
2022/11/19 02:09:26;;;;;;;5.60;5.10;;;;;;;;;;4956895;28;20222;-86
2022/11/19 02:12:10;;;;;;;5.77;5.27;;;;;;;;;;4958451;28;20229;-87
2022/11/19 02:14:54;;;;;;;5.60;5.10;;;;;;;;;;4982578;28;20610;-85
2022/11/19 02:17:38;;;;;;;6.17;5.43;;;;;;;;;;5007087;28;20261;-87
2022/11/19 02:20:56;;;;;;;6.13;5.53;;;;;;;;;;4993587;28;20226;-86
2022/11/19 02:23:47;;;;;;;5.13;4.63;;;;;;;;;;4943268;29;20252;-85
2022/11/19 02:26:25;;;;;;;5.13;4.63;;;;;;;;;;4935857;29;20235;-85
2022/11/19 02:28:52;;;;;;;5.83;5.10;;;;;;;;;;4994802;28;20217;-86
2022/11/19 02:31:27;;;;;;;5.33;4.83;;;;;;;;;;4988605;28;20220;-87
2022/11/19 02:34:03;;;;;;;6.47;5.43;;;;;;;;;;4979786;28;20235;-87
2022/11/19 02:36:57;;;;;;;6.43;5.83;;;;;;;;;;4990240;28;20238;-87
2022/11/19 02:39:35;;;;;;;5.97;5.37;;;;;;;;;;4974601;28;20233;-86
2022/11/19 02:42:05;;;;;;;5.33;4.87;;;;;;;;;;4996756;28;20217;-86
2022/11/19 02:45:01;;;;;;;5.63;5.13;;;;;;;;;;4974062;28;20233;-87
2022/11/19 02:47:54;;;;;;;5.60;5.00;;;;;;;;;;4968551;28;20233;-86
2022/11/19 02:50:35;;;;;;;5.93;5.33;;;;;;;;;;5004596;28;20229;-86
2022/11/19 02:53:02;;;;;;;6.00;5.33;;;;;;;;;;4975361;28;20300;-87
2022/11/19 02:55:30;;;;;;;5.77;5.27;;;;;;;;;;4978747;28;20228;-87
2022/11/19 02:58:02;;;;;;;5.40;4.90;;;;;;;;;;4989306;28;20248;-87
2022/11/19 03:06:14;;;;;;;5.50;5.00;;;;;;;;;;4966236;28;20234;-87
2022/11/19 03:08:39;;;;;;;6.30;5.50;;;;;;;;;;4978394;28;20248;-86
2022/11/19 03:11:21;;;;;;;4.97;4.57;;;;;;;;;;4982934;28;20234;-84
2022/11/19 03:16:56;;;;;;;5.47;4.90;;;;;;;;;;4996574;28;20241;-87
2022/11/19 03:19:32;;;;;;;5.77;5.27;;;;;;;;;;4973153;28;20252;-85
2022/11/19 03:22:02;;;;;;;5.77;5.27;;;;;;;;;;4999505;28;20257;-85
2022/11/19 03:24:43;;;;;;;5.67;5.17;;;;;;;;;;4958144;28;20234;-87
2022/11/19 03:27:09;;;;;;;5.33;4.83;;;;;;;;;;4978612;28;20262;-86
2022/11/19 03:29:41;;;;;;;5.37;4.87;;;;;;;;;;5002203;28;20319;-86
2022/11/19 03:32:16;;;;;;;5.77;5.27;;;;;;;;;;4983551;28;20218;-86
2022/11/19 03:34:42;;;;;;;6.40;5.80;;;;;;;;;;4947561;28;20222;-87
2022/11/19 03:37:07;;;;;;;5.53;5.03;;;;;;;;;;4984294;28;20746;-86
2022/11/19 03:39:38;;;;;;;6.10;5.50;;;;;;;;;;4981941;28;20235;-86
2022/11/19 03:42:11;;;;;;;5.47;4.97;;;;;;;;;;4983126;28;20267;-86
2022/11/19 03:44:52;;;;;;;7.03;5.30;;;;;;;;;;4987992;28;20238;-85
2022/11/19 03:47:19;;;;;;;7.33;5.40;;;;;;;;;;4981164;28;20671;-85
2022/11/19 03:49:46;;;;;;;6.53;5.70;;;;;;;;;;4983136;28;20233;-87
2022/11/19 03:52:16;;;;;;;5.90;5.40;;;;;;;;;;4980223;28;20288;-86
2022/11/19 03:54:41;;;;;;;6.40;5.47;;;;;;;;;;4985288;28;20236;-85
2022/11/19 03:57:10;;;;;;;6.13;5.53;;;;;;;;;;4986189;28;20227;-86
2022/11/19 03:59:36;;;;;;;5.83;5.07;;;;;;;;;;4983221;28;20276;-88
2022/11/19 04:02:05;;;;;;;5.80;5.30;;;;;;;;;;4980715;28;20217;-85
2022/11/19 04:04:37;;;;;;;5.63;5.10;;;;;;;;;;4937577;28;20223;-86
2022/11/19 04:07:23;;;;;;;6.23;5.63;;;;;;;;;;4986843;28;20235;-85
2022/11/19 04:09:51;;;;;;;6.40;5.80;;;;;;;;;;4961978;28;20218;-87
2022/11/19 04:12:18;;;;;;;6.17;5.57;;;;;;;;;;4962392;28;20222;-87
2022/11/19 04:14:47;;;;;;;6.13;5.60;;;;;;;;;;4947502;28;20313;-86
2022/11/19 04:17:15;;;;;;;6.80;6.00;;;;;;;;;;4978866;28;20600;-87
2022/11/19 04:19:42;;;;;;;6.07;5.47;;;;;;;;;;4981883;28;20337;-86
2022/11/19 04:22:08;;;;;;;7.00;6.30;;;;;;;;;;4952144;28;20214;-88
2022/11/19 04:24:34;;;;;;;6.27;5.63;;;;;;;;;;4955909;28;20234;-87
2022/11/19 04:26:59;;;;;;;6.47;5.97;;;;;;;;;;4981897;28;20237;-87
2022/11/19 04:29:25;;;;;;;6.60;6.00;;;;;;;;;;4969995;28;20222;-87
2022/11/19 04:31:50;;;;;;;6.07;5.47;;;;;;;;;;4981400;28;20214;-87
2022/11/19 04:34:16;;;;;;;6.30;5.53;;;;;;;;;;4944590;28;20222;-85
2022/11/19 04:37:01;;;;;;;6.23;5.70;;;;;;;;;;4956996;23;20231;-75
2022/11/19 04:39:29;;;;;;;6.30;5.70;;;;;;;;;;4950040;28;20654;-74
2022/11/19 04:41:57;;;;;;;6.03;5.43;;;;;;;;;;4936827;28;20234;-74
2022/11/19 04:44:22;;;;;;;6.27;5.47;;;;;;;;;;4933931;28;20242;-74
2022/11/19 04:46:50;;;;;;;6.23;5.53;;;;;;;;;;4940451;28;20239;-74
2022/11/19 04:49:16;;;;;;;6.83;5.37;;;;;;;;;;4939204;28;20301;-74
2022/11/19 04:51:42;;;;;;;7.10;5.90;;;;;;;;;;4938274;28;20223;-75
2022/11/19 04:54:11;;;;;;;7.67;6.47;;;;;;;;;;4953088;28;20226;-74
2022/11/19 04:56:40;;;;;;;6.90;6.20;;;;;;;;;;4931910;29;20242;-74
2022/11/19 04:59:06;;;;;;;6.30;5.70;;;;;;;;;;4937609;28;20223;-74
2022/11/19 05:01:32;;;;;;;6.27;5.47;;;;;;;;;;4933156;28;20273;-74
2022/11/19 05:03:59;;;;;;;7.33;6.63;;;;;;;;;;4967416;23;20262;-83
2022/11/19 05:06:25;;;;;;;6.03;5.43;;;;;;;;;;4975049;28;20230;-84
2022/11/19 05:08:53;;;;;;;6.60;5.80;;;;;;;;;;4938017;28;20225;-83
2022/11/19 05:11:21;;;;;;;6.43;5.83;;;;;;;;;;4942724;29;20219;-84
2022/11/19 05:13:48;;;;;;;6.47;5.73;;;;;;;;;;4944632;29;20294;-83
2022/11/19 05:16:16;;;;;;;6.67;6.07;;;;;;;;;;4930452;28;20210;-84
2022/11/19 05:18:42;;;;;;;7.13;6.43;;;;;;;;;;4946321;28;20254;-83
2022/11/19 05:21:07;;;;;;;6.30;5.70;;;;;;;;;;4941733;28;20231;-83
2022/11/19 05:23:38;;;;;;;6.73;6.00;;;;;;;;;;4947868;29;20243;-86
2022/11/19 05:26:04;;;;;;;6.30;5.67;;;;;;;;;;4942175;28;20230;-86
2022/11/19 05:28:32;;;;;;;6.07;5.57;;;;;;;;;;4921283;28;20233;-83
2022/11/19 05:30:58;;;;;;;7.23;6.53;;;;;;;;;;4936217;28;20231;-86
2022/11/19 05:33:24;;;;;;;6.43;5.83;;;;;;;;;;4917185;28;20233;-85
2022/11/19 05:35:53;;;;;;;6.93;6.23;;;;;;;;;;4921128;28;20265;-84
2022/11/19 05:38:21;;;;;;;6.97;6.23;;;;;;;;;;4936761;28;20210;-83
2022/11/19 05:40:49;;;;;;;6.53;5.93;;;;;;;;;;4948469;28;20286;-84
2022/11/19 05:43:17;;;;;;;6.60;5.97;;;;;;;;;;4928918;28;20318;-84
2022/11/19 05:45:43;;;;;;;7.00;6.40;;;;;;;;;;4943753;29;20294;-83
2022/11/19 05:48:08;;;;;;;6.83;6.23;;;;;;;;;;4923535;28;20319;-83
2022/11/19 05:50:34;;;;;;;7.73;6.27;;;;;;;;;;4958737;28;20214;-84
2022/11/19 05:53:00;;;;;;;6.70;6.10;;;;;;;;;;4937498;28;20338;-83
2022/11/19 05:55:26;;;;;;;7.47;6.70;;;;;;;;;;4947674;28;20289;-84
2022/11/19 05:57:54;;;;;;;7.37;6.67;;;;;;;;;;4930992;29;20725;-85
2022/11/19 06:00:19;;;;;;;7.73;6.93;;;;;;;;;;4946387;28;20230;-84
2022/11/19 06:02:45;;;;;;;7.10;6.40;;;;;;;;;;4924336;28;20226;-83
2022/11/19 06:05:11;;;;;;;7.27;6.57;;;;;;;;;;4916093;28;20607;-85
2022/11/19 06:07:38;;;;;;;7.40;6.63;;;;;;;;;;4937706;28;20236;-85
2022/11/19 06:10:04;;;;;;;7.83;7.13;;;;;;;;;;4927442;28;20234;-85
2022/11/19 06:12:35;;;;;;;7.17;6.47;;;;;;;;;;4941112;28;20292;-85
2022/11/19 06:15:03;;;;;;;8.07;6.43;;;;;;;;;;4952390;28;20266;-85
2022/11/19 06:17:28;;;;;;;6.73;6.00;;;;;;;;;;4918271;29;20704;-84
2022/11/19 06:19:59;;;;;;;7.67;6.17;;;;;;;;;;4949637;28;20227;-85
2022/11/19 06:22:24;;;;;;;8.47;7.07;;;;;;;;;;4926998;28;20258;-84
2022/11/19 06:24:52;;;;;;;7.33;6.63;;;;;;;;;;4918745;28;20730;-85
2022/11/19 06:27:20;;;;;;;8.87;7.97;;;;;;;;;;4929363;28;20262;-85
2022/11/19 06:29:45;;;;;;;9.37;7.20;;;;;;;;;;4922555;28;20223;-85
2022/11/19 06:32:11;;;;;;;7.57;6.80;;;;;;;;;;4904136;28;20610;-85
2022/11/19 06:34:39;;;;;;;9.30;7.50;;;;;;;;;;4922677;28;20651;-85
2022/11/19 06:37:04;;;;;;;8.47;7.63;;;;;;;;;;4919505;28;20232;-85
2022/11/19 06:39:37;;;;;;;7.63;6.93;;;;;;;;;;4939662;29;20311;-85
2022/11/19 06:44:53;;;;;;;7.53;6.83;;;;;;;;;;4927844;28;20232;-83
2022/11/19 06:47:19;;;;;;;7.37;6.70;;;;;;;;;;4923846;28;20370;-85
2022/11/19 06:49:44;;;;;;;6.93;6.23;;;;;;;;;;4949130;28;20230;-84
2022/11/19 06:52:10;;;;;;;7.10;6.03;;;;;;;;;;4932102;28;20625;-84
2022/11/19 06:54:36;;;;;;;5.73;5.13;;;;;;;;;;4917163;28;20659;-84
2022/11/19 06:57:01;;;;;;;6.70;6.07;;;;;;;;;;4944071;28;20827;-84
2022/11/19 06:59:33;;;;;;;6.13;5.63;;;;;;;;;;4932886;28;20219;-84
2022/11/19 07:02:01;;;;;;;5.23;4.73;;;;;;;;;;4929580;28;20581;-83
2022/11/19 07:04:31;;;;;;;7.50;6.87;;;;;;;;;;4919563;29;20241;-82
2022/11/19 07:06:57;;;;;;;9.00;7.33;;;;;;;;;;4941599;29;20239;-82
2022/11/19 07:09:23;;;;;;;7.30;6.60;;;;;;;;;;4924810;28;20700;-82
2022/11/19 07:11:48;;;;;;;12.67;10.00;;;;;;;;;;4914136;29;20227;-85
2022/11/19 07:14:16;;;;;;;11.63;8.47;;;;;;;;;;4919413;28;20711;-83
2022/11/19 07:16:44;;;;;;;6.17;5.67;;;;;;;;;;4892308;28;20641;-83
2022/11/19 07:19:10;;;;;;;7.87;6.77;;;;;;;;;;4920424;28;20597;-82
2022/11/19 07:21:36;;;;;;;8.17;6.87;;;;;;;;;;4946403;28;20236;-82
2022/11/19 07:24:03;;;;;;;9.03;7.13;;;;;;;;;;4921338;28;20231;-83
2022/11/19 07:26:32;;;;;;;7.23;6.53;;;;;;;;;;4923170;29;20266;-83
2022/11/19 07:29:05;;;;;;;8.83;7.93;;;;;;;;;;4946324;28;20285;-81
2022/11/19 07:31:33;;;;;;;8.77;7.93;;;;;;;;;;4904613;28;20777;-82
2022/11/19 07:33:59;;;;;;;9.20;8.30;;;;;;;;;;4917203;28;20231;-82
2022/11/19 07:36:25;;;;;;;9.40;8.50;;;;;;;;;;4935610;28;20222;-83
2022/11/19 07:38:51;;;;;;;12.77;10.73;;;;;;;;;;4918350;29;20250;-81
2022/11/19 07:44:03;;;;;;;10.17;9.03;;;;;;;;;;4948893;28;20237;-81
2022/11/19 07:46:31;;;;;;;7.53;6.83;;;;;;;;;;4916543;28;20227;-83
2022/11/19 07:48:57;;;;;;;7.23;6.50;;;;;;;;;;4913420;29;20290;-83
2022/11/19 07:51:23;;;;;;;9.30;8.40;;;;;;;;;;4924327;28;20231;-82
2022/11/19 07:53:49;;;;;;;12.63;11.37;;;;;;;;;;4939072;28;20334;-83
2022/11/19 07:56:15;;;;;;;14.83;13.27;;;;;;;;;;4907336;29;20754;-83
2022/11/19 07:58:40;;;;;;;15.80;12.83;;;;;;;;;;4923193;29;20235;-83
2022/11/19 08:01:12;;;;;;;15.53;14.03;;;;;;;;;;4937417;28;20253;-81
2022/11/19 08:03:38;;;;;;;14.03;12.63;;;;;;;;;;4921839;29;20255;-82
2022/11/19 08:06:06;;;;;;;12.03;10.97;;;;;;;;;;4918195;29;20282;-82
2022/11/19 08:08:34;;;;;;;12.23;11.10;;;;;;;;;;4953987;28;20359;-83
2022/11/19 08:11:07;;;;;;;11.60;10.47;;;;;;;;;;4944497;28;20286;-82
2022/11/19 08:13:32;;;;;;;13.57;11.90;;;;;;;;;;4940145;28;20250;-81
2022/11/19 08:16:05;;;;;;;10.33;9.33;;;;;;;;;;4913143;29;20223;-82
2022/11/19 08:18:31;;;;;;;11.33;10.23;;;;;;;;;;4956850;28;20227;-81
2022/11/19 08:21:11;;;;;;;14.23;10.87;;;;;;;;;;4941003;28;20269;-82
2022/11/19 08:23:39;;;;;;;14.57;11.03;;;;;;;;;;4920349;29;20283;-81
2022/11/19 08:26:08;;;;;;;11.80;9.87;;;;;;;;;;4954139;28;20312;-82
2022/11/19 08:28:33;;;;;;;11.83;9.90;;;;;;;;;;4924129;29;20242;-81
2022/11/19 08:31:08;;;;;;;10.23;9.13;;;;;;;;;;4921013;28;20849;-82
2022/11/19 08:33:34;;;;;;;9.73;8.83;;;;;;;;;;4950657;28;20253;-81
2022/11/19 08:36:02;;;;;;;11.00;9.90;;;;;;;;;;4933638;29;20234;-82
2022/11/19 08:38:28;;;;;;;12.33;11.17;;;;;;;;;;4916641;28;20222;-82
2022/11/19 08:42:58;;;;;;;12.10;10.80;;;;;;;;;;4912262;29;20229;-82
2022/11/19 08:43:39;;;;;;;12.77;11.37;;;;;;;;;;4937411;28;20245;-83
2022/11/19 08:46:05;;;;;;;12.53;11.27;;;;;;;;;;4939131;28;20238;-81
2022/11/19 08:48:31;;;;;;;11.73;10.53;;;;;;;;;;4955357;28;20292;-81
2022/11/19 08:50:57;;;;;;;11.27;10.27;;;;;;;;;;4921685;28;20229;-81
2022/11/19 08:53:22;;;;;;;10.60;9.53;;;;;;;;;;4941223;28;20231;-81
2022/11/19 08:55:54;;;;;;;10.53;9.43;;;;;;;;;;4924955;28;20236;-81
2022/11/19 08:58:19;;;;;;;11.07;9.97;;;;;;;;;;4921486;28;20223;-82
2022/11/19 09:00:45;;;;;;;10.50;9.10;;;;;;;;;;4938974;28;20594;-81
2022/11/19 09:03:10;;;;;;;10.67;9.43;;;;;;;;;;4919875;28;20231;-81
2022/11/19 09:05:38;;;;;;;10.03;9.17;;;;;;;;;;4935157;28;20230;-80
2022/11/19 09:08:04;;;;;;;9.77;8.87;;;;;;;;;;4929809;29;20227;-83
2022/11/19 09:10:29;;;;;;;9.40;8.50;;;;;;;;;;4953994;28;20643;-83
2022/11/19 09:13:02;;;;;;;9.00;8.23;;;;;;;;;;4935856;28;20277;-83
2022/11/19 09:15:27;;;;;;;9.30;8.50;;;;;;;;;;4940596;28;20267;-81
2022/11/19 09:17:53;;;;;;;8.53;7.80;;;;;;;;;;4947951;29;20227;-82
2022/11/19 09:20:19;;;;;;;9.23;8.37;;;;;;;;;;4944199;28;20230;-81
2022/11/19 09:22:44;;;;;;;8.73;7.93;;;;;;;;;;4925431;29;20742;-83
2022/11/19 09:25:10;;;;;;;7.70;7.00;;;;;;;;;;4944263;28;20260;-81
2022/11/19 09:27:35;;;;;;;9.13;8.20;;;;;;;;;;4937991;28;20230;-79
2022/11/19 09:30:03;;;;;;;7.30;6.67;;;;;;;;;;4926945;28;20227;-80
2022/11/19 09:32:32;;;;;;;7.33;6.70;;;;;;;;;;4922184;29;20716;-80
2022/11/19 09:34:57;;;;;;;7.43;6.73;;;;;;;;;;4925565;28;20230;-80
2022/11/19 09:37:23;;;;;;;7.57;6.87;;;;;;;;;;4920616;28;20235;-82
2022/11/19 09:39:48;;;;;;;8.23;7.20;;;;;;;;;;4925661;28;20227;-81
2022/11/19 09:42:28;;;;;;;7.40;6.73;;;;;;;;;;4941298;28;20241;-82
2022/11/19 09:45:08;;;;;;;7.00;6.33;;;;;;;;;;4968036;28;20253;-81
2022/11/19 09:47:45;;;;;;;6.40;5.83;;;;;;;;;;4946143;28;20257;-81
2022/11/19 09:50:21;;;;;;;7.77;6.43;;;;;;;;;;4963407;28;20244;-79
2022/11/19 09:53:10;;;;;;;7.20;6.60;;;;;;;;;;4955333;28;20230;-83
2022/11/19 09:55:40;;;;;;;6.70;6.10;;;;;;;;;;4955409;28;20739;-82
2022/11/19 09:58:35;;;;;;;6.90;6.30;;;;;;;;;;4894893;28;20341;-82
2022/11/19 10:01:03;;;;;;;7.23;6.50;;;;;;;;;;4956298;28;20309;-82
2022/11/19 10:03:29;;;;;;;6.43;5.93;;;;;;;;;;4923297;28;20231;-82
2022/11/19 10:06:07;;;;;;;7.87;6.63;;;;;;;;;;4958657;28;20229;-84
2022/11/19 10:08:41;;;;;;;7.00;6.30;;;;;;;;;;4954438;29;20319;-84
2022/11/19 10:11:19;;;;;;;6.80;6.30;;;;;;;;;;4972040;28;20313;-86
2022/11/19 10:13:48;;;;;;;6.03;5.53;;;;;;;;;;4948284;28;20233;-82
2022/11/19 10:16:51;;;;;;;6.33;5.73;;;;;;;;;;4976559;28;20242;-84
2022/11/19 10:19:28;;;;;;;5.60;5.10;;;;;;;;;;4973327;28;20225;-84
2022/11/19 10:22:31;;;;;;;5.73;5.23;;;;;;;;;;4945513;28;20234;-83
2022/11/19 10:25:09;;;;;;;6.07;5.50;;;;;;;;;;4961152;28;20234;-82
2022/11/19 10:27:39;;;;;;;6.17;5.10;;;;;;;;;;4957770;28;20239;-83
2022/11/19 10:30:11;;;;;;;5.40;4.90;;;;;;;;;;4948695;28;20227;-82
2022/11/19 10:32:39;;;;;;;5.50;5.00;;;;;;;;;;4922948;29;20343;-83
2022/11/19 10:35:20;;;;;;;7.87;5.73;;;;;;;;;;4950692;28;20223;-82
2022/11/19 10:38:01;;;;;;;6.07;5.47;;;;;;;;;;4943603;28;20309;-83
2022/11/19 10:40:40;;;;;;;8.00;5.53;;;;;;;;;;4953982;28;20286;-83
2022/11/19 10:43:14;;;;;;;6.23;5.63;;;;;;;;;;4919765;28;20226;-83
2022/11/19 10:45:42;;;;;;;5.70;5.20;;;;;;;;;;4944969;29;20257;-84
2022/11/19 10:48:23;;;;;;;5.83;5.33;;;;;;;;;;4948659;28;20228;-83
2022/11/19 10:50:50;;;;;;;5.20;4.70;;;;;;;;;;4959719;28;20249;-83
2022/11/19 10:53:22;;;;;;;5.83;4.90;;;;;;;;;;4925113;28;20302;-83
2022/11/19 10:55:50;;;;;;;4.73;4.33;;;;;;;;;;4954209;28;20242;-84
2022/11/19 10:58:21;;;;;;;4.77;3.90;;;;;;;;;;4919428;28;20746;-83
2022/11/19 11:00:47;;;;;;;4.60;4.20;;;;;;;;;;4952955;29;20223;-83
2022/11/19 11:03:31;;;;;;;4.47;4.07;;;;;;;;;;4941867;28;20230;-84
2022/11/19 11:06:05;;;;;;;4.10;3.80;;;;;;;;;;4951726;28;20237;-83
2022/11/19 11:08:46;;;;;;;3.80;3.50;;;;;;;;;;4942116;29;20262;-83
2022/11/19 11:11:11;;;;;;;4.40;3.40;;;;;;;;;;4925286;28;20222;-83
2022/11/19 11:16:45;;;;;;;5.33;4.80;;;;;;;;;;4926460;28;20222;-83
2022/11/19 11:19:17;;;;;;;4.30;3.93;;;;;;;;;;4930195;28;20218;-82
2022/11/19 11:21:43;;;;;;;5.10;4.67;;;;;;;;;;4933564;28;20226;-83
2022/11/19 11:24:10;;;;;;;4.87;3.97;;;;;;;;;;4916002;28;20723;-82
2022/11/19 11:26:36;;;;;;;7.20;4.60;;;;;;;;;;4916423;29;20231;-82
2022/11/19 11:29:08;;;;;;;4.07;3.77;;;;;;;;;;4929036;29;20226;-82
2022/11/19 11:31:38;;;;;;;4.20;3.73;;;;;;;;;;4928882;28;20231;-83
2022/11/19 11:34:05;;;;;;;4.30;4.00;;;;;;;;;;4918785;28;20223;-82
2022/11/19 11:36:35;;;;;;;4.03;3.73;;;;;;;;;;4916962;29;20238;-82
2022/11/19 11:39:03;;;;;;;3.97;3.67;;;;;;;;;;4921007;29;20238;-82
2022/11/19 11:41:39;;;;;;;4.67;4.27;;;;;;;;;;4938841;28;20596;-82
2022/11/19 11:44:14;;;;;;;3.67;3.37;;;;;;;;;;4955610;28;20272;-82
2022/11/19 11:46:39;;;;;;;3.57;3.30;;;;;;;;;;4954359;28;20291;-82
2022/11/19 11:49:08;;;;;;;4.03;3.53;;;;;;;;;;4962793;28;20226;-82
2022/11/19 11:51:35;;;;;;;5.80;4.10;;;;;;;;;;4944591;29;20954;-81
2022/11/19 11:54:05;;;;;;;4.03;3.70;;;;;;;;;;4921712;28;20225;-81
2022/11/19 11:56:34;;;;;;;3.87;3.47;;;;;;;;;;4963990;28;20235;-82
2022/11/19 11:59:22;;;;;;;3.50;3.30;;;;;;;;;;4921284;29;20229;-81
2022/11/19 12:02:02;;;;;;;3.87;3.57;;;;;;;;;;4922464;28;20321;-81
2022/11/19 12:04:28;;;;;;;3.40;3.20;;;;;;;;;;4911498;28;20238;-82
2022/11/19 12:07:10;;;;;;;3.80;3.50;;;;;;;;;;4923536;29;20242;-82
2022/11/19 12:09:53;;;;;;;4.10;3.70;;;;;;;;;;4929305;28;20322;-81
2022/11/19 12:12:42;;;;;;;3.93;3.63;;;;;;;;;;4912239;28;20265;-81
2022/11/19 12:15:13;;;;;;;3.83;3.53;;;;;;;;;;4926260;28;20255;-82
2022/11/19 12:18:06;;;;;;;3.80;3.40;;;;;;;;;;4937408;28;20333;-81
2022/11/19 12:20:37;;;;;;;3.57;3.27;;;;;;;;;;4959388;28;20641;-79
2022/11/19 12:23:48;;;;;;;3.63;3.33;;;;;;;;;;4965559;28;20231;-81
2022/11/19 12:26:45;;;;;;;4.43;4.03;;;;;;;;;;4973282;23;20241;-74
2022/11/19 12:29:28;;;;;;;3.87;3.57;;;;;;;;;;4986276;28;20312;-74
2022/11/19 12:32:20;;;;;;;3.53;3.23;;;;;;;;;;4985929;28;20320;-74
2022/11/19 12:35:04;;;;;;;3.83;3.43;;;;;;;;;;4996359;28;20225;-74
2022/11/19 12:37:32;;;;;;;3.50;3.30;;;;;;;;;;4981904;28;20248;-74
2022/11/19 12:40:16;;;;;;;3.63;3.10;;;;;;;;;;5003716;28;20232;-74
2022/11/19 12:42:57;;;;;;;3.80;3.37;;;;;;;;;;4983240;28;20234;-73
2022/11/19 12:45:41;;;;;;;4.07;3.67;;;;;;;;;;4965704;28;20220;-75
2022/11/19 12:48:15;;;;;;;3.70;3.40;;;;;;;;;;4983010;28;20252;-73
2022/11/19 12:51:00;;;;;;;4.27;3.57;;;;;;;;;;4984479;28;20398;-74
2022/11/19 12:53:51;;;;;;;4.03;3.63;;;;;;;;;;4997450;28;20264;-73
2022/11/19 12:56:28;;;;;;;3.77;3.40;;;;;;;;;;4990914;28;20229;-74
2022/11/19 12:59:15;;;;;;;3.87;3.57;;;;;;;;;;4987125;28;20229;-74
2022/11/19 13:01:49;;;;;;;4.90;3.30;;;;;;;;;;4989236;28;20699;-76
2022/11/19 13:04:31;;;;;;;3.90;3.60;;;;;;;;;;4961285;28;20234;-77
2022/11/19 13:07:01;;;;;;;3.73;3.43;;;;;;;;;;4973276;28;20281;-73
2022/11/19 13:09:50;;;;;;;3.90;3.60;;;;;;;;;;5003906;28;20225;-74
2022/11/19 13:12:22;;;;;;;7.03;4.13;;;;;;;;;;4979397;28;20229;-75
2022/11/19 13:14:47;;;;;;;7.13;4.30;;;;;;;;;;4953822;28;20249;-74
2022/11/19 13:17:27;;;;;;;6.00;3.97;;;;;;;;;;4985012;28;20373;-75
2022/11/19 13:20:00;;;;;;;4.73;3.80;;;;;;;;;;4983223;28;20233;-74
2022/11/19 13:22:31;;;;;;;4.33;3.93;;;;;;;;;;4963522;28;20221;-75
2022/11/19 13:25:11;;;;;;;3.70;3.40;;;;;;;;;;4968003;28;20252;-75
2022/11/19 13:27:36;;;;;;;4.27;3.87;;;;;;;;;;4997203;28;20291;-74
2022/11/19 13:30:05;;;;;;;4.80;4.33;;;;;;;;;;5003380;28;20217;-74
2022/11/19 13:32:58;;;;;;;5.33;3.50;;;;;;;;;;5005304;28;20229;-73
2022/11/19 13:35:32;;;;;;;4.20;3.47;;;;;;;;;;5000979;28;20225;-73
2022/11/19 13:38:06;;;;;;;4.80;3.67;;;;;;;;;;4990593;28;20224;-74
2022/11/19 13:40:48;;;;;;;4.00;3.70;;;;;;;;;;4999401;28;20240;-74
2022/11/19 13:46:09;;;;;;;3.20;3.00;;;;;;;;;;4993458;28;20250;-73
2022/11/19 13:48:42;;;;;;;4.50;3.80;;;;;;;;;;5002350;28;20224;-74
2022/11/19 13:51:16;;;;;;;4.37;3.63;;;;;;;;;;4990441;28;20230;-76
2022/11/19 13:53:43;;;;;;;7.30;4.47;;;;;;;;;;5018996;28;20233;-74
2022/11/19 13:56:14;;;;;;;4.77;4.37;;;;;;;;;;4969993;28;20224;-74
2022/11/19 13:58:53;;;;;;;4.10;3.80;;;;;;;;;;4989871;28;20221;-74
2022/11/19 14:01:42;;;;;;;5.00;4.60;;;;;;;;;;4986353;28;20284;-75
2022/11/19 14:04:23;;;;;;;4.73;4.33;;;;;;;;;;4997842;28;20232;-76
2022/11/19 14:07:15;;;;;;;4.83;4.40;;;;;;;;;;5002846;28;20233;-76
2022/11/19 14:10:06;;;;;;;4.73;4.33;;;;;;;;;;4992923;28;20256;-76
2022/11/19 14:12:47;;;;;;;4.70;4.30;;;;;;;;;;5002603;28;20227;-75
2022/11/19 14:27:14;;;;;;;6.23;5.73;;;;;;;;;;5005580;28;20216;-73
2022/11/19 14:29:42;;;;;;;6.00;5.47;;;;;;;;;;4999432;28;20738;-74
2022/11/19 14:32:08;;;;;;;6.83;5.73;;;;;;;;;;4999768;28;20232;-74
2022/11/19 14:34:34;;;;;;;6.43;5.83;;;;;;;;;;4996303;28;20232;-74
2022/11/19 14:37:02;;;;;;;6.67;6.07;;;;;;;;;;4998315;28;20595;-74
2022/11/19 14:39:29;;;;;;;10.80;8.70;;;;;;;;;;4986310;28;20243;-74
2022/11/19 14:42:11;;;;;;;9.43;8.63;;;;;;;;;;5005320;28;20235;-75
2022/11/19 14:44:36;;;;;;;9.43;8.47;;;;;;;;;;4990702;28;20224;-74
2022/11/19 14:47:20;;;;;;;8.37;7.67;;;;;;;;;;4968792;28;20669;-75
2022/11/19 14:49:46;;;;;;;7.97;7.20;;;;;;;;;;4979435;28;20237;-76
2022/11/19 14:52:22;;;;;;;8.60;7.63;;;;;;;;;;5011346;28;20221;-75
2022/11/19 14:54:56;;;;;;;8.97;8.10;;;;;;;;;;4988666;28;20221;-76
2022/11/19 14:57:31;;;;;;;10.17;8.63;;;;;;;;;;5001250;28;20738;-75
2022/11/19 15:00:15;;;;;;;11.33;9.37;;;;;;;;;;5004626;28;20714;-75
2022/11/19 15:02:44;;;;;;;8.97;7.57;;;;;;;;;;4987614;28;20232;-76
2022/11/19 15:05:19;;;;;;;7.10;6.50;;;;;;;;;;4988382;28;20649;-75
2022/11/19 15:07:46;;;;;;;8.60;6.33;;;;;;;;;;5002089;28;20220;-77
2022/11/19 15:10:12;;;;;;;9.03;6.60;;;;;;;;;;4972936;28;20304;-77
2022/11/19 15:12:45;;;;;;;5.97;5.50;;;;;;;;;;4997631;28;20661;-79
2022/11/19 15:15:19;;;;;;;5.70;5.20;;;;;;;;;;5021049;28;20690;-76
2022/11/19 15:17:45;;;;;;;5.17;4.67;;;;;;;;;;4992702;28;20262;-78
2022/11/19 15:20:48;;;;;;;5.70;5.20;;;;;;;;;;5003698;28;20258;-76
2022/11/19 15:23:36;;;;;;;4.93;4.43;;;;;;;;;;5003886;28;20228;-75
2022/11/19 15:26:17;;;;;;;5.30;4.90;;;;;;;;;;4991722;28;20233;-75
2022/11/19 15:28:43;;;;;;;5.40;4.90;;;;;;;;;;5017656;28;20315;-75
2022/11/19 15:31:48;;;;;;;5.90;5.40;;;;;;;;;;5002404;28;20481;-74
2022/11/19 15:34:38;;;;;;;5.37;4.87;;;;;;;;;;5019950;28;20713;-75
2022/11/19 15:37:08;;;;;;;5.63;5.13;;;;;;;;;;4999505;28;20281;-76
2022/11/19 15:39:38;;;;;;;5.10;4.60;;;;;;;;;;4991556;28;20242;-77